Time;durP1;ratioP1;P1;durP2;ratioP2;P2;SDS_P1;SDS_P2;PMS_P1;PMS_P2;Temp;Humidity;BMP_temperature;BMP_pressure;BME280_temperature;BME280_humidity;BME280_pressure;Samples;Min_cycle;Max_cycle;Signal;HPM_P1;HPM_P2
2021/04/23 00:01:20;;;;;;;3.72;1.33;;;6.80;99.90;;;;;;4429019;32;20061;-71
2021/04/23 00:03:59;;;;;;;0.68;0.68;;;6.80;99.90;;;;;;4429796;32;20512;-71
2021/04/23 00:06:31;;;;;;;0.40;0.40;;;6.90;99.90;;;;;;4429888;32;20066;-71
2021/04/23 00:09:01;;;;;;;1.65;0.90;;;6.90;99.90;;;;;;4429841;32;20073;-71
2021/04/23 00:11:34;;;;;;;0.30;0.30;;;6.80;99.90;;;;;;4421299;32;20117;-71
2021/04/23 00:14:00;;;;;;;0.30;0.30;;;6.90;99.90;;;;;;4415467;32;20057;-71
2021/04/23 00:16:25;;;;;;;0.52;0.43;;;6.80;99.90;;;;;;4416098;32;20070;-70
2021/04/23 00:18:51;;;;;;;0.52;0.52;;;6.70;99.90;;;;;;4415047;32;20078;-71
2021/04/23 00:21:20;;;;;;;0.30;0.30;;;6.60;99.90;;;;;;4415130;32;20621;-70
2021/04/23 00:23:46;;;;;;;0.40;0.40;;;6.50;99.90;;;;;;4416112;32;20066;-70
2021/04/23 00:26:12;;;;;;;18.00;0.82;;;6.50;99.90;;;;;;4415089;32;20073;-70
2021/04/23 00:28:38;;;;;;;0.88;0.55;;;6.50;99.90;;;;;;4414544;32;20160;-71
2021/04/23 00:31:05;;;;;;;1.67;1.20;;;6.60;99.90;;;;;;4414483;32;20062;-71
2021/04/23 00:33:31;;;;;;;0.40;0.40;;;6.60;99.90;;;;;;4414963;32;20073;-70
2021/04/23 00:35:57;;;;;;;0.40;0.40;;;6.60;99.90;;;;;;4426076;32;20117;-73
2021/04/23 00:38:26;;;;;;;0.40;0.40;;;6.50;99.90;;;;;;4430006;32;20082;-70
2021/04/23 00:40:55;;;;;;;13.40;1.98;;;6.60;99.90;;;;;;4430802;32;20061;-70
2021/04/23 00:43:22;;;;;;;0.57;0.57;;;6.60;99.90;;;;;;4430037;32;20069;-70
2021/04/23 00:45:49;;;;;;;8.07;0.70;;;6.70;99.90;;;;;;4429656;32;20057;-70
2021/04/23 00:48:16;;;;;;;0.37;0.37;;;6.60;99.90;;;;;;4430432;32;20073;-70
2021/04/23 00:50:48;;;;;;;0.82;0.82;;;6.60;99.90;;;;;;4429640;32;20066;-70
2021/04/23 00:53:27;;;;;;;2.25;0.82;;;6.50;99.90;;;;;;4430498;32;20122;-71
2021/04/23 00:55:56;;;;;;;1.65;1.05;;;6.60;99.90;;;;;;4429024;32;20065;-71
2021/04/23 00:58:26;;;;;;;0.47;0.47;;;6.60;99.90;;;;;;4430383;32;20061;-70
2021/04/23 01:00:55;;;;;;;1.87;0.68;;;6.60;99.90;;;;;;4430564;32;20416;-70
2021/04/23 01:03:22;;;;;;;3.03;1.67;;;6.60;99.90;;;;;;4429109;32;20075;-70
2021/04/23 01:05:50;;;;;;;1.20;0.70;;;6.60;99.90;;;;;;4429020;32;20124;-71
2021/04/23 01:08:16;;;;;;;0.37;0.37;;;6.60;99.90;;;;;;4429555;32;20515;-71
2021/04/23 01:10:42;;;;;;;0.93;0.93;;;6.70;99.90;;;;;;4425274;32;20065;-70
2021/04/23 01:13:08;;;;;;;7.90;0.90;;;6.70;99.90;;;;;;4413976;32;20058;-72
2021/04/23 01:15:34;;;;;;;0.40;0.40;;;6.80;99.90;;;;;;4413508;32;20120;-72
2021/04/23 01:17:59;;;;;;;0.82;0.82;;;6.80;99.90;;;;;;4415403;32;20112;-71
2021/04/23 01:20:26;;;;;;;0.60;0.60;;;6.80;99.90;;;;;;4413754;32;20054;-71
2021/04/23 01:22:52;;;;;;;2.62;1.45;;;6.80;99.90;;;;;;4413349;32;20112;-72
2021/04/23 01:25:19;;;;;;;0.57;0.57;;;6.90;99.90;;;;;;4414126;32;20516;-72
2021/04/23 01:27:44;;;;;;;0.40;0.40;;;6.80;99.90;;;;;;4413881;32;20069;-72
2021/04/23 01:30:14;;;;;;;0.25;0.25;;;6.80;99.90;;;;;;4413578;32;20498;-72
2021/04/23 01:32:40;;;;;;;0.30;0.30;;;6.80;99.90;;;;;;4413640;32;20077;-71
2021/04/23 01:35:08;;;;;;;2.03;0.70;;;6.80;99.90;;;;;;4413763;32;20129;-71
2021/04/23 01:37:34;;;;;;;0.43;0.43;;;6.80;99.90;;;;;;4413959;32;20117;-71
2021/04/23 01:39:59;;;;;;;2.03;0.60;;;6.80;99.90;;;;;;4414040;32;20061;-71
2021/04/23 01:42:25;;;;;;;0.52;0.52;;;6.70;99.90;;;;;;4414109;32;20077;-72
2021/04/23 01:44:50;;;;;;;1.50;0.73;;;6.70;99.90;;;;;;4413624;32;20393;-71
2021/04/23 01:47:16;;;;;;;0.98;0.80;;;6.80;99.90;;;;;;4415036;32;20069;-71
2021/04/23 01:49:42;;;;;;;0.43;0.43;;;6.80;99.90;;;;;;4413803;32;20073;-71
2021/04/23 01:52:13;;;;;;;0.88;0.88;;;6.80;99.90;;;;;;4412956;32;20528;-71
2021/04/23 01:54:39;;;;;;;0.45;0.45;;;6.70;99.90;;;;;;4414547;32;20117;-71
2021/04/23 01:57:05;;;;;;;0.37;0.37;;;6.70;99.90;;;;;;4413692;32;20079;-71
2021/04/23 01:59:32;;;;;;;1.52;1.27;;;6.60;99.90;;;;;;4417795;32;20432;-71
2021/04/23 02:01:59;;;;;;;0.77;0.75;;;6.70;99.90;;;;;;4429814;32;20123;-71
2021/04/23 02:04:25;;;;;;;3.95;2.12;;;6.70;99.90;;;;;;4429849;32;20054;-71
2021/04/23 02:06:52;;;;;;;1.92;1.48;;;6.70;99.90;;;;;;4428770;32;20135;-72
2021/04/23 02:09:18;;;;;;;1.12;1.02;;;6.70;99.90;;;;;;4428958;32;20065;-72
2021/04/23 02:11:45;;;;;;;0.30;0.30;;;6.70;99.90;;;;;;4417730;32;20066;-72
2021/04/23 02:14:11;;;;;;;7.78;1.27;;;6.70;99.90;;;;;;4413550;32;20074;-72
2021/04/23 02:16:38;;;;;;;0.50;0.50;;;6.80;99.90;;;;;;4414960;32;20070;-72
2021/04/23 02:19:06;;;;;;;0.32;0.32;;;6.80;99.90;;;;;;4414236;32;20062;-72
2021/04/23 02:21:35;;;;;;;1.95;0.60;;;6.80;99.90;;;;;;4414002;32;20077;-72
2021/04/23 02:24:01;;;;;;;0.40;0.40;;;6.70;99.90;;;;;;4413396;32;20058;-72
2021/04/23 02:26:27;;;;;;;1.35;0.82;;;6.60;99.90;;;;;;4413041;32;20070;-72
2021/04/23 02:28:53;;;;;;;6.60;1.25;;;6.60;99.90;;;;;;4413571;32;20506;-72
2021/04/23 02:31:24;;;;;;;0.60;0.60;;;6.60;99.90;;;;;;4413271;32;20074;-71
2021/04/23 02:33:51;;;;;;;;;;;6.60;99.90;;;;;;4413374;32;20062;-71
2021/04/23 02:36:17;;;;;;;1.10;0.80;;;6.60;99.90;;;;;;4412749;32;19965;-71
2021/04/23 02:38:44;;;;;;;0.50;0.50;;;6.50;99.90;;;;;;4413874;32;20523;-71
2021/04/23 02:41:09;;;;;;;2.33;1.45;;;6.60;99.90;;;;;;4413947;32;20514;-71
2021/04/23 02:43:38;;;;;;;1.05;0.90;;;6.50;99.90;;;;;;4413488;32;20074;-71
2021/04/23 02:46:06;;;;;;;3.00;1.10;;;6.50;99.90;;;;;;4413083;32;20524;-71
2021/04/23 02:48:34;;;;;;;0.45;0.45;;;6.40;99.90;;;;;;4413618;32;20385;-71
2021/04/23 02:51:05;;;;;;;0.47;0.47;;;6.40;99.90;;;;;;4411935;32;20622;-71
2021/04/23 02:53:31;;;;;;;1.75;1.20;;;6.30;99.90;;;;;;4412764;32;20120;-72
2021/04/23 02:55:57;;;;;;;2.53;1.23;;;6.30;99.90;;;;;;4413157;32;20058;-72
2021/04/23 02:58:23;;;;;;;4.35;0.88;;;6.30;99.90;;;;;;4414072;32;20074;-71
2021/04/23 03:01:00;;;;;;;0.60;0.60;;;6.40;99.90;;;;;;4424201;32;20073;-72
2021/04/23 03:03:27;;;;;;;0.30;0.30;;;6.40;99.90;;;;;;4427892;32;20077;-72
2021/04/23 03:05:53;;;;;;;5.43;1.95;;;6.30;99.90;;;;;;4428435;32;20626;-71
2021/04/23 03:08:20;;;;;;;0.40;0.40;;;6.40;99.90;;;;;;4428278;32;20116;-72
2021/04/23 03:10:49;;;;;;;0.25;0.25;;;6.30;99.90;;;;;;4424085;32;20073;-71
2021/04/23 03:13:21;;;;;;;0.30;0.30;;;6.30;99.90;;;;;;4412967;32;20058;-71
2021/04/23 03:15:47;;;;;;;7.12;0.95;;;6.30;99.90;;;;;;4413760;32;20078;-71
2021/04/23 03:18:17;;;;;;;0.45;0.45;;;6.30;99.90;;;;;;4415372;32;20073;-71
2021/04/23 03:20:44;;;;;;;0.32;0.32;;;6.30;99.90;;;;;;4414869;32;20125;-71
2021/04/23 03:23:10;;;;;;;0.95;0.52;;;6.40;99.90;;;;;;4415442;32;20077;-71
2021/04/23 03:25:36;;;;;;;6.35;2.05;;;6.40;99.90;;;;;;4415839;32;20117;-72
2021/04/23 03:28:03;;;;;;;2.78;1.25;;;6.30;99.90;;;;;;4415312;32;20073;-72
2021/04/23 03:30:33;;;;;;;0.65;0.52;;;6.30;99.90;;;;;;4415845;32;20069;-72
2021/04/23 03:32:59;;;;;;;1.45;0.98;;;6.30;99.90;;;;;;4414736;32;20079;-72
2021/04/23 03:35:25;;;;;;;6.55;1.35;;;6.30;99.90;;;;;;4415417;32;20079;-72
2021/04/23 03:37:51;;;;;;;0.60;0.60;;;6.20;99.90;;;;;;4415210;32;20061;-72
2021/04/23 03:40:21;;;;;;;1.77;0.80;;;6.20;99.90;;;;;;4416165;32;20459;-71
2021/04/23 03:42:48;;;;;;;6.82;1.02;;;6.20;99.90;;;;;;4416206;32;20062;-71
2021/04/23 03:45:15;;;;;;;0.50;0.50;;;6.20;99.90;;;;;;4415487;32;20077;-71
2021/04/23 03:47:41;;;;;;;0.77;0.77;;;6.20;99.90;;;;;;4415118;32;20062;-71
2021/04/23 03:50:09;;;;;;;0.40;0.40;;;6.20;99.90;;;;;;4416706;32;20079;-71
2021/04/23 03:52:35;;;;;;;0.80;0.80;;;6.10;99.90;;;;;;4415479;32;20112;-71
2021/04/23 03:55:06;;;;;;;1.40;0.65;;;6.10;99.90;;;;;;4415571;32;20137;-72
2021/04/23 03:57:33;;;;;;;0.70;0.50;;;6.20;99.90;;;;;;4416198;32;20070;-71
2021/04/23 03:59:58;;;;;;;0.68;0.68;;;6.20;99.90;;;;;;4422900;32;20084;-71
2021/04/23 04:02:24;;;;;;;0.40;0.40;;;6.20;99.90;;;;;;4429829;32;20113;-71
2021/04/23 04:04:50;;;;;;;2.10;0.93;;;6.30;99.90;;;;;;4430591;32;20073;-71
2021/04/23 04:07:15;;;;;;;0.75;0.75;;;6.30;99.90;;;;;;4431752;32;20073;-71
2021/04/23 04:09:40;;;;;;;0.60;0.60;;;6.20;99.90;;;;;;4431112;32;20494;-71
2021/04/23 04:12:06;;;;;;;3.10;0.68;;;6.30;99.90;;;;;;4416505;32;20066;-71
2021/04/23 04:14:32;;;;;;;3.83;1.20;;;6.40;99.90;;;;;;4414822;32;20069;-71
2021/04/23 04:16:57;;;;;;;0.40;0.40;;;6.40;99.90;;;;;;4414612;32;20099;-72
2021/04/23 04:19:23;;;;;;;2.72;1.05;;;6.40;99.90;;;;;;4415645;32;20120;-72
2021/04/23 04:21:48;;;;;;;0.50;0.50;;;6.30;99.90;;;;;;4411625;32;20068;-72
2021/04/23 04:24:14;;;;;;;8.48;2.37;;;6.40;99.90;;;;;;4425307;32;20077;-72
2021/04/23 04:26:39;;;;;;;32.60;2.65;;;6.40;99.90;;;;;;4426491;32;20530;-72
2021/04/23 04:29:05;;;;;;;6.55;1.37;;;6.50;99.90;;;;;;4417603;32;20077;-72
2021/04/23 04:31:31;;;;;;;1.02;0.93;;;6.50;99.90;;;;;;4415234;32;20070;-71
2021/04/23 04:33:57;;;;;;;0.52;0.52;;;6.40;99.90;;;;;;4413349;32;20082;-72
2021/04/23 04:36:22;;;;;;;0.93;0.93;;;6.50;99.90;;;;;;4414448;32;20066;-72
2021/04/23 04:38:48;;;;;;;0.30;0.30;;;6.50;99.90;;;;;;4414769;32;20057;-72
2021/04/23 04:41:14;;;;;;;0.65;0.65;;;6.40;99.90;;;;;;4425916;32;20077;-72
2021/04/23 04:43:41;;;;;;;0.40;0.40;;;6.40;99.90;;;;;;4429875;32;20082;-73
2021/04/23 04:46:07;;;;;;;0.30;0.30;;;6.40;99.90;;;;;;4431160;32;20081;-73
2021/04/23 04:48:33;;;;;;;0.32;0.32;;;6.40;99.90;;;;;;4430500;32;20061;-73
2021/04/23 04:51:00;;;;;;;0.37;0.37;;;6.50;99.90;;;;;;4429195;32;20135;-70
2021/04/23 04:53:26;;;;;;;0.30;0.30;;;6.50;99.90;;;;;;4427269;32;20057;-72
2021/04/23 04:55:54;;;;;;;0.77;0.77;;;6.50;99.90;;;;;;4414805;32;20074;-72
2021/04/23 04:58:25;;;;;;;0.50;0.50;;;6.50;99.90;;;;;;4419175;32;20116;-72
2021/04/23 05:00:51;;;;;;;0.50;0.50;;;6.50;99.90;;;;;;4427483;32;20419;-72
2021/04/23 05:03:17;;;;;;;15.60;1.20;;;6.50;99.90;;;;;;4416417;32;20064;-72
2021/04/23 05:05:43;;;;;;;1.15;0.60;;;6.50;99.90;;;;;;4421814;32;20078;-72
2021/04/23 05:08:09;;;;;;;0.37;0.37;;;6.40;99.90;;;;;;4415460;32;20515;-72
2021/04/23 05:10:35;;;;;;;0.45;0.45;;;6.50;99.90;;;;;;4415899;32;20061;-72
2021/04/23 05:13:01;;;;;;;0.37;0.37;;;6.50;99.90;;;;;;4422716;32;20057;-72
2021/04/23 05:15:28;;;;;;;0.40;0.40;;;6.50;99.90;;;;;;4425221;32;20062;-72
2021/04/23 05:17:53;;;;;;;0.75;0.75;;;6.40;99.90;;;;;;4403003;32;20128;-72
2021/04/23 05:20:20;;;;;;;2.20;1.25;;;6.40;99.90;;;;;;4417229;32;20514;-72
2021/04/23 05:22:46;;;;;;;0.50;0.50;;;6.30;99.90;;;;;;4413699;32;20090;-72
2021/04/23 05:25:14;;;;;;;0.32;0.32;;;6.40;99.90;;;;;;4423524;32;20084;-72
2021/04/23 05:27:40;;;;;;;2.92;1.50;;;6.40;99.90;;;;;;4410513;32;20089;-72
2021/04/23 05:30:10;;;;;;;0.40;0.40;;;6.40;99.90;;;;;;4416817;32;20111;-72
2021/04/23 05:32:36;;;;;;;2.28;1.05;;;6.50;99.90;;;;;;4393135;32;20133;-72
2021/04/23 05:35:03;;;;;;;0.52;0.50;;;6.60;99.90;;;;;;4412648;32;20116;-72
2021/04/23 05:37:28;;;;;;;0.55;0.55;;;6.60;99.90;;;;;;4412883;32;20542;-72
2021/04/23 05:39:54;;;;;;;6.15;0.40;;;6.60;99.90;;;;;;4420208;32;20147;-72
2021/04/23 05:42:20;;;;;;;1.87;0.60;;;6.60;99.90;;;;;;4420992;32;20065;-72
2021/04/23 05:44:45;;;;;;;4.28;0.98;;;6.60;99.90;;;;;;4416291;32;20137;-72
2021/04/23 05:47:12;;;;;;;2.53;0.65;;;6.60;99.90;;;;;;4415671;32;20085;-72
2021/04/23 05:49:38;;;;;;;0.43;0.43;;;6.60;99.90;;;;;;4419229;32;20057;-71
2021/04/23 05:52:06;;;;;;;0.98;0.93;;;6.70;99.90;;;;;;4422227;32;20459;-72
2021/04/23 05:54:32;;;;;;;2.35;0.90;;;6.70;99.90;;;;;;4426055;32;20547;-72
2021/04/23 05:56:58;;;;;;;0.93;0.88;;;6.80;99.90;;;;;;4416972;32;20112;-72
2021/04/23 05:59:24;;;;;;;0.40;0.40;;;6.90;99.90;;;;;;4409634;32;20073;-72
2021/04/23 06:01:49;;;;;;;0.88;0.73;;;6.90;99.90;;;;;;4414427;32;20089;-72
2021/04/23 06:04:15;;;;;;;0.50;0.50;;;6.90;99.90;;;;;;4422295;32;20531;-72
2021/04/23 06:06:40;;;;;;;1.65;0.88;;;6.90;99.90;;;;;;4421422;32;20073;-72
2021/04/23 06:09:06;;;;;;;5.12;2.05;;;6.90;99.90;;;;;;4427543;32;20082;-72
2021/04/23 06:11:32;;;;;;;0.65;0.65;;;7.00;99.90;;;;;;4421615;32;20078;-72
2021/04/23 06:13:58;;;;;;;1.75;1.17;;;7.00;99.90;;;;;;4410161;32;20413;-72
2021/04/23 06:16:24;;;;;;;1.42;1.23;;;7.00;99.90;;;;;;4411757;32;20089;-72
2021/04/23 06:18:50;;;;;;;1.02;0.77;;;6.90;99.90;;;;;;4414546;32;20634;-72
2021/04/23 06:21:15;;;;;;;6.40;2.25;;;6.90;99.90;;;;;;4408725;32;20165;-72
2021/04/23 06:23:41;;;;;;;0.68;0.68;;;7.00;99.90;;;;;;4410028;32;20123;-72
2021/04/23 06:26:07;;;;;;;1.00;0.90;;;7.10;99.90;;;;;;4406517;32;20090;-72
2021/04/23 06:28:34;;;;;;;0.68;0.68;;;7.20;99.90;;;;;;4406315;32;20069;-72
2021/04/23 06:31:00;;;;;;;1.08;0.98;;;7.30;99.90;;;;;;4422622;32;20077;-72
2021/04/23 06:33:30;;;;;;;17.95;5.68;;;7.20;99.90;;;;;;4412989;32;20316;-72
2021/04/23 06:35:55;;;;;;;0.40;0.40;;;7.30;99.90;;;;;;4417729;32;20069;-72
2021/04/23 06:38:23;;;;;;;1.90;0.88;;;7.30;99.90;;;;;;4411226;32;20130;-72
2021/04/23 06:40:50;;;;;;;0.50;0.50;;;7.50;99.90;;;;;;4408415;32;20074;-72
2021/04/23 06:43:15;;;;;;;0.98;0.85;;;7.30;99.90;;;;;;4414929;32;20061;-72
2021/04/23 06:45:40;;;;;;;0.70;0.70;;;7.30;99.90;;;;;;4416979;32;20094;-72
2021/04/23 06:48:10;;;;;;;0.75;0.65;;;7.30;99.90;;;;;;4410293;32;20117;-72
2021/04/23 06:50:36;;;;;;;0.40;0.40;;;7.30;99.90;;;;;;4413235;32;20073;-72
2021/04/23 06:53:03;;;;;;;0.30;0.30;;;7.30;99.90;;;;;;4422043;32;20058;-72
2021/04/23 06:55:28;;;;;;;0.30;0.30;;;7.40;99.90;;;;;;4414199;32;20073;-72
2021/04/23 06:57:54;;;;;;;3.17;0.85;;;7.50;99.90;;;;;;4420693;32;20193;-72
2021/04/23 07:00:25;;;;;;;0.70;0.70;;;7.50;99.90;;;;;;4418247;32;20061;-72
2021/04/23 07:02:50;;;;;;;;;;;7.50;99.90;;;;;;4413570;32;20518;-72
2021/04/23 07:05:16;;;;;;;0.85;0.50;;;7.60;99.90;;;;;;4425742;32;19948;-72
2021/04/23 07:07:42;;;;;;;0.65;0.65;;;7.60;99.90;;;;;;4416135;32;20131;-72
2021/04/23 07:10:11;;;;;;;17.62;3.75;;;7.50;99.90;;;;;;4417150;32;20069;-72
2021/04/23 07:12:38;;;;;;;0.37;0.37;;;7.40;99.90;;;;;;4422241;32;20069;-70
2021/04/23 07:15:05;;;;;;;0.43;0.43;;;7.40;99.90;;;;;;4422593;32;20085;-71
2021/04/23 07:17:31;;;;;;;0.32;0.32;;;7.40;99.90;;;;;;4420826;32;20463;-71
2021/04/23 07:19:56;;;;;;;1.23;0.50;;;7.50;99.90;;;;;;4414303;32;20054;-71
2021/04/23 07:22:22;;;;;;;0.30;0.30;;;7.60;99.90;;;;;;4416776;32;20054;-71
2021/04/23 07:24:47;;;;;;;2.67;1.12;;;7.70;99.90;;;;;;4417026;32;20058;-71
2021/04/23 07:27:13;;;;;;;0.40;0.40;;;7.80;99.90;;;;;;4415607;32;20116;-71
2021/04/23 07:29:38;;;;;;;0.40;0.40;;;7.80;99.90;;;;;;4420321;32;20098;-71
2021/04/23 07:32:04;;;;;;;0.30;0.30;;;7.90;99.90;;;;;;4418709;32;20094;-71
2021/04/23 07:34:30;;;;;;;0.60;0.60;;;7.90;99.90;;;;;;4415591;32;20502;-71
2021/04/23 07:36:57;;;;;;;4.95;1.05;;;7.90;99.90;;;;;;4411628;32;20049;-72
2021/04/23 07:39:26;;;;;;;0.35;0.35;;;8.10;99.90;;;;;;4422265;32;20393;-71
2021/04/23 07:41:54;;;;;;;0.43;0.43;;;8.10;99.90;;;;;;4425550;32;20124;-72
2021/04/23 07:44:20;;;;;;;1.37;0.85;;;8.10;99.90;;;;;;4420130;32;20090;-72
2021/04/23 07:46:46;;;;;;;3.40;1.00;;;8.10;99.90;;;;;;4418221;32;20053;-72
2021/04/23 07:49:11;;;;;;;1.75;0.35;;;8.10;99.90;;;;;;4415509;32;20113;-72
2021/04/23 07:51:37;;;;;;;0.95;0.73;;;8.20;99.90;;;;;;4419984;32;20164;-72
2021/04/23 07:54:03;;;;;;;3.58;0.47;;;8.30;99.90;;;;;;4412961;32;20132;-71
2021/04/23 07:56:28;;;;;;;5.93;3.10;;;8.30;99.90;;;;;;4416364;32;20342;-71
2021/04/23 07:58:54;;;;;;;3.40;0.62;;;8.40;99.90;;;;;;4421199;32;20054;-72
2021/04/23 08:01:19;;;;;;;0.40;0.40;;;8.50;99.90;;;;;;4416537;32;20057;-72
2021/04/23 08:03:45;;;;;;;0.60;0.60;;;8.60;99.90;;;;;;4423273;32;20093;-72
2021/04/23 08:06:10;;;;;;;0.35;0.35;;;8.60;99.90;;;;;;4422780;32;20078;-72
2021/04/23 08:08:36;;;;;;;0.32;0.32;;;8.70;99.90;;;;;;4422752;32;20057;-72
2021/04/23 08:11:01;;;;;;;0.57;0.57;;;8.60;99.90;;;;;;4418529;32;20124;-72
2021/04/23 08:13:27;;;;;;;0.40;0.40;;;8.60;99.90;;;;;;4423569;32;20071;-72
2021/04/23 08:15:52;;;;;;;0.28;0.28;;;8.60;99.90;;;;;;4420788;32;20073;-72
2021/04/23 08:18:20;;;;;;;0.77;0.77;;;8.80;99.90;;;;;;4420361;32;20100;-72
2021/04/23 08:20:47;;;;;;;8.43;0.60;;;8.90;99.90;;;;;;4425096;32;20069;-72
2021/04/23 08:23:13;;;;;;;7.35;2.45;;;9.10;99.90;;;;;;4419560;32;20428;-72
2021/04/23 08:25:38;;;;;;;0.43;0.35;;;9.00;99.90;;;;;;4418249;32;20057;-72
2021/04/23 08:28:04;;;;;;;2.03;1.80;;;9.10;99.90;;;;;;4411697;32;20073;-72
2021/04/23 08:30:30;;;;;;;0.52;0.52;;;9.10;99.90;;;;;;4415512;32;20086;-72
2021/04/23 08:32:58;;;;;;;1.23;1.05;;;9.10;99.90;;;;;;4418022;32;20109;-71
2021/04/23 08:35:24;;;;;;;0.32;0.32;;;9.00;99.90;;;;;;4417366;32;20065;-72
2021/04/23 08:37:50;;;;;;;4.87;1.62;;;9.30;99.90;;;;;;4423710;32;20073;-71
2021/04/23 08:40:18;;;;;;;0.40;0.40;;;9.40;99.90;;;;;;4419415;32;20086;-72
2021/04/23 08:42:44;;;;;;;0.40;0.40;;;9.40;99.90;;;;;;4418075;32;20116;-72
2021/04/23 08:45:15;;;;;;;0.50;0.50;;;9.80;99.90;;;;;;4420771;32;20140;-72
2021/04/23 08:47:43;;;;;;;0.85;0.85;;;10.00;99.90;;;;;;4418037;32;20530;-72
2021/04/23 08:50:10;;;;;;;0.60;0.60;;;10.00;99.90;;;;;;4419993;32;20121;-72
2021/04/23 08:52:36;;;;;;;31.65;1.05;;;10.00;99.90;;;;;;4422840;32;20077;-72
2021/04/23 08:55:03;;;;;;;0.50;0.50;;;9.80;99.90;;;;;;4417687;32;20214;-72
2021/04/23 08:57:29;;;;;;;0.60;0.60;;;9.60;99.90;;;;;;4417284;32;20103;-72
2021/04/23 08:59:55;;;;;;;0.52;0.50;;;9.60;99.90;;;;;;4415758;32;20084;-72
2021/04/23 09:02:20;;;;;;;0.47;0.47;;;9.70;99.90;;;;;;4416402;32;20077;-72
2021/04/23 09:04:46;;;;;;;3.72;1.37;;;9.60;99.90;;;;;;4414659;32;20499;-72
2021/04/23 09:07:12;;;;;;;1.10;1.05;;;9.30;99.90;;;;;;4419332;32;20049;-72
2021/04/23 09:09:40;;;;;;;0.52;0.52;;;9.20;99.90;;;;;;4419489;32;20070;-72
2021/04/23 09:12:24;;;;;;;8.82;1.02;;;9.60;99.90;;;;;;4410413;32;20120;-72
2021/04/23 09:14:51;;;;;;;4.95;1.30;;;10.20;99.90;;;;;;4417289;32;20511;-72
2021/04/23 09:17:20;;;;;;;0.50;0.50;;;10.70;99.90;;;;;;4410457;32;20128;-72
2021/04/23 09:19:46;;;;;;;1.95;0.65;;;10.70;99.90;;;;;;4419034;32;20061;-72
2021/04/23 09:22:22;;;;;;;0.50;0.50;;;10.50;99.90;;;;;;4426270;27;20141;-87
2021/04/23 09:24:59;;;;;;;32.58;0.90;;;10.40;99.90;;;;;;4426603;32;20082;-88
2021/04/23 09:27:29;;;;;;;0.82;0.73;;;10.50;99.90;;;;;;4425534;32;20439;-87
2021/04/23 09:29:59;;;;;;;0.88;0.40;;;10.60;99.90;;;;;;4423065;32;20136;-87
2021/04/23 09:32:33;;;;;;;0.70;0.70;;;10.60;99.90;;;;;;4425813;32;20090;-87
2021/04/23 09:35:02;;;;;;;6.93;0.77;;;11.00;99.90;;;;;;4422671;32;20085;-88
2021/04/23 09:37:30;;;;;;;4.78;0.75;;;11.10;99.90;;;;;;4423373;32;20121;-86
2021/04/23 09:40:16;;;;;;;3.03;0.68;;;11.10;99.90;;;;;;4416333;32;139024;-87
2021/04/23 09:42:57;;;;;;;0.43;0.43;;;11.40;99.90;;;;;;4424745;32;20066;-86
2021/04/23 09:45:23;;;;;;;;;;;11.40;99.90;;;;;;4423541;32;20101;-87
2021/04/23 09:47:57;;;;;;;0.30;0.30;;;11.20;99.60;;;;;;4422889;32;20340;-87
2021/04/23 09:50:34;;;;;;;0.52;0.52;;;11.40;99.90;;;;;;4400077;32;20162;-87
2021/04/23 09:53:00;;;;;;;0.62;0.62;;;11.60;99.90;;;;;;4424234;32;20124;-87
2021/04/23 09:55:29;;;;;;;0.40;0.40;;;11.40;99.90;;;;;;4428090;32;20077;-87
2021/04/23 09:58:01;;;;;;;0.30;0.30;;;11.20;99.90;;;;;;4418418;32;20089;-86
2021/04/23 10:00:31;;;;;;;0.57;0.55;;;11.40;99.90;;;;;;4422138;32;20073;-88
2021/04/23 10:03:00;;;;;;;0.50;0.50;;;11.70;99.20;;;;;;4418242;32;20065;-86
2021/04/23 10:05:29;;;;;;;2.28;0.60;;;11.60;99.20;;;;;;4425516;32;20089;-86
2021/04/23 10:07:55;;;;;;;4.70;0.45;;;12.10;98.70;;;;;;4419698;32;20183;-86
2021/04/23 10:10:22;;;;;;;0.30;0.30;;;12.40;97.60;;;;;;4421474;32;20073;-86
2021/04/23 10:12:53;;;;;;;0.40;0.40;;;12.30;96.80;;;;;;4421693;32;20340;-86
2021/04/23 10:15:37;;;;;;;0.32;0.32;;;12.00;96.70;;;;;;4417664;32;20094;-85
2021/04/23 10:18:14;;;;;;;0.30;0.30;;;12.20;95.90;;;;;;4422566;32;20098;-86
2021/04/23 10:20:45;;;;;;;0.45;0.45;;;12.70;96.10;;;;;;4442002;26;20738;-61
2021/04/23 10:23:14;;;;;;;1.45;0.75;;;13.50;95.40;;;;;;4431724;32;20521;-61
2021/04/23 10:25:40;;;;;;;0.37;0.37;;;13.40;93.20;;;;;;4422775;32;20108;-60
2021/04/23 10:28:10;;;;;;;0.28;0.28;;;12.80;92.30;;;;;;4437089;32;20054;-62
2021/04/23 10:30:39;;;;;;;2.80;0.75;;;12.80;93.20;;;;;;4436307;32;20057;-61
2021/04/23 10:33:07;;;;;;;0.50;0.50;;;13.10;92.40;;;;;;4436911;32;20115;-62
2021/04/23 10:35:34;;;;;;;0.47;0.47;;;13.30;92.70;;;;;;4423257;32;20356;-61
2021/04/23 10:38:03;;;;;;;6.50;0.70;;;13.80;91.40;;;;;;4420635;32;20122;-62
2021/04/23 10:40:30;;;;;;;1.08;0.90;;;14.00;90.30;;;;;;4425548;32;20493;-60
2021/04/23 10:42:57;;;;;;;0.50;0.50;;;13.40;90.30;;;;;;4441624;32;20073;-63
2021/04/23 10:45:33;;;;;;;0.30;0.30;;;13.00;90.40;;;;;;4436239;32;20053;-63
2021/04/23 10:47:59;;;;;;;0.30;0.30;;;13.00;91.40;;;;;;4429440;32;20414;-62
2021/04/23 10:50:36;;;;;;;0.30;0.30;;;13.50;90.10;;;;;;4418281;32;20459;-61
2021/04/23 10:53:09;;;;;;;0.37;0.37;;;13.60;90.30;;;;;;4419684;32;20133;-62
2021/04/23 10:55:54;;;;;;;0.93;0.68;;;13.30;90.10;;;;;;4419566;32;20093;-62
2021/04/23 10:58:22;;;;;;;21.83;1.50;;;13.20;90.90;;;;;;4423874;32;20154;-62
2021/04/23 11:00:49;;;;;;;0.60;0.60;;;13.20;88.30;;;;;;4436889;32;20085;-62
2021/04/23 11:03:36;;;;;;;3.72;0.52;;;13.60;86.30;;;;;;4422924;32;20094;-62
2021/04/23 11:06:19;;;;;;;0.45;0.45;;;14.00;85.50;;;;;;4400243;32;20061;-61
2021/04/23 11:09:03;;;;;;;0.40;0.40;;;14.60;85.40;;;;;;4424105;32;20077;-62
2021/04/23 11:11:32;;;;;;;0.37;0.37;;;15.20;81.30;;;;;;4429547;32;20069;-63
2021/04/23 11:14:20;;;;;;;9.32;0.70;;;15.20;78.30;;;;;;4414557;32;20069;-63
2021/04/23 11:16:46;;;;;;;0.30;0.30;;;15.20;78.60;;;;;;4417424;32;20555;-61
2021/04/23 11:19:22;;;;;;;3.40;1.25;;;15.00;79.10;;;;;;4423887;32;20100;-63
2021/04/23 11:21:48;;;;;;;0.20;0.20;;;14.80;79.40;;;;;;4427791;32;20081;-62
2021/04/23 11:24:17;;;;;;;0.47;0.47;;;14.00;80.40;;;;;;4402862;32;20533;-60
2021/04/23 11:27:04;;;;;;;3.35;0.88;;;13.90;83.20;;;;;;4427676;32;20078;-61
2021/04/23 11:29:52;;;;;;;0.65;0.65;;;13.70;82.10;;;;;;4414643;32;20429;-62
2021/04/23 11:32:22;;;;;;;0.30;0.30;;;14.10;81.10;;;;;;4417746;32;20078;-61
2021/04/23 11:34:49;;;;;;;0.30;0.30;;;14.80;77.70;;;;;;4407534;32;20573;-61
2021/04/23 11:37:19;;;;;;;1.25;0.75;;;14.80;78.00;;;;;;4423173;32;20475;-61
2021/04/23 11:39:50;;;;;;;1.25;0.82;;;14.40;77.30;;;;;;4393814;32;20062;-63
2021/04/23 11:42:19;;;;;;;4.55;0.68;;;14.20;78.60;;;;;;4418527;32;20085;-62
2021/04/23 11:44:47;;;;;;;2.03;0.65;;;14.40;79.30;;;;;;4422924;32;20054;-63
2021/04/23 11:47:16;;;;;;;0.30;0.30;;;15.20;74.40;;;;;;4426430;32;20092;-60
2021/04/23 11:49:42;;;;;;;4.37;0.75;;;15.20;74.00;;;;;;4408206;32;20098;-62
2021/04/23 11:52:08;;;;;;;0.40;0.40;;;14.90;75.00;;;;;;4423167;32;20077;-62
2021/04/23 11:54:38;;;;;;;0.20;0.20;;;14.60;76.00;;;;;;4423341;32;20069;-62
2021/04/23 11:57:07;;;;;;;0.40;0.40;;;15.30;75.70;;;;;;4415953;32;20565;-64
2021/04/23 11:59:34;;;;;;;0.40;0.40;;;15.40;69.70;;;;;;4409060;32;20447;-62
2021/04/23 12:01:59;;;;;;;1.45;0.75;;;15.30;70.60;;;;;;4415576;32;20617;-62
2021/04/23 12:04:46;;;;;;;7.37;1.58;;;15.20;69.30;;;;;;4425363;32;20177;-62
2021/04/23 12:07:14;;;;;;;0.98;0.80;;;14.80;68.90;;;;;;4414694;32;20471;-62
2021/04/23 12:09:41;;;;;;;2.28;1.27;;;15.80;68.60;;;;;;4413583;32;20132;-62
2021/04/23 12:12:11;;;;;;;0.50;0.50;;;16.80;66.70;;;;;;4410184;32;20061;-63
2021/04/23 12:14:47;;;;;;;6.18;2.05;;;16.90;66.50;;;;;;4412359;32;20064;-63
2021/04/23 12:17:14;;;;;;;0.77;0.73;;;16.80;66.20;;;;;;4409228;32;20062;-63
2021/04/23 12:19:40;;;;;;;0.37;0.37;;;16.70;65.00;;;;;;4413829;32;20332;-62
2021/04/23 12:22:05;;;;;;;6.30;2.25;;;17.10;61.20;;;;;;4425983;32;20073;-63
2021/04/23 12:24:31;;;;;;;0.20;0.20;;;17.10;58.60;;;;;;4421538;32;20089;-63
2021/04/23 12:26:57;;;;;;;0.65;0.65;;;17.60;59.40;;;;;;4426201;32;20502;-62
2021/04/23 12:29:23;;;;;;;0.47;0.47;;;18.30;57.50;;;;;;4429854;32;20124;-62
2021/04/23 12:31:50;;;;;;;4.18;1.50;;;18.20;56.50;;;;;;4426822;32;20089;-62
2021/04/23 12:34:16;;;;;;;0.47;0.47;;;17.90;57.80;;;;;;4406037;32;20097;-63
2021/04/23 12:36:48;;;;;;;0.82;0.52;;;18.10;57.10;;;;;;4425342;32;20061;-63
2021/04/23 12:39:19;;;;;;;0.20;0.20;;;18.30;57.00;;;;;;4408478;32;20101;-63
2021/04/23 12:41:47;;;;;;;0.20;0.20;;;18.50;56.20;;;;;;4427959;32;20176;-63
2021/04/23 12:44:16;;;;;;;0.65;0.60;;;19.10;57.00;;;;;;4415253;32;20139;-59
2021/04/23 12:46:47;;;;;;;0.37;0.37;;;19.80;53.30;;;;;;4413701;32;20057;-60
2021/04/23 12:49:18;;;;;;;8.57;0.30;;;20.10;52.40;;;;;;4425270;32;20622;-60
2021/04/23 12:51:46;;;;;;;;;;;19.60;52.30;;;;;;4407630;32;20156;-64
2021/04/23 12:54:13;;;;;;;0.93;0.82;;;18.20;53.30;;;;;;4421608;32;19999;-61
2021/04/23 12:56:40;;;;;;;5.95;0.40;;;17.50;54.50;;;;;;4411026;32;20518;-62
2021/04/23 12:59:06;;;;;;;0.60;0.60;;;18.40;55.20;;;;;;4427160;32;20057;-62